sensor_id;sensor_type;location;lat;lon;timestamp;P1;durP1;ratioP1;P2;durP2;ratioP2
19446;SDS011;9862;49.462;11.054;2023-08-06T00:01:09;4.90;;;3.72;;
19446;SDS011;9862;49.462;11.054;2023-08-06T00:03:36;5.85;;;4.13;;
19446;SDS011;9862;49.462;11.054;2023-08-06T00:06:04;6.32;;;4.30;;
19446;SDS011;9862;49.462;11.054;2023-08-06T00:08:32;4.53;;;3.47;;
19446;SDS011;9862;49.462;11.054;2023-08-06T00:10:59;4.45;;;3.63;;
19446;SDS011;9862;49.462;11.054;2023-08-06T00:13:25;4.40;;;3.72;;
19446;SDS011;9862;49.462;11.054;2023-08-06T00:15:52;4.75;;;3.38;;
19446;SDS011;9862;49.462;11.054;2023-08-06T00:18:19;7.65;;;3.78;;
19446;SDS011;9862;49.462;11.054;2023-08-06T00:20:46;5.95;;;3.67;;
19446;SDS011;9862;49.462;11.054;2023-08-06T00:23:13;5.40;;;3.45;;
19446;SDS011;9862;49.462;11.054;2023-08-06T00:25:41;4.18;;;3.35;;
19446;SDS011;9862;49.462;11.054;2023-08-06T00:28:08;5.85;;;3.75;;
19446;SDS011;9862;49.462;11.054;2023-08-06T00:30:35;4.00;;;3.60;;
19446;SDS011;9862;49.462;11.054;2023-08-06T00:33:01;4.50;;;3.25;;
19446;SDS011;9862;49.462;11.054;2023-08-06T00:35:29;4.93;;;3.40;;
19446;SDS011;9862;49.462;11.054;2023-08-06T00:37:56;4.85;;;3.08;;
19446;SDS011;9862;49.462;11.054;2023-08-06T00:40:22;5.07;;;3.47;;
19446;SDS011;9862;49.462;11.054;2023-08-06T00:42:52;3.72;;;3.10;;
19446;SDS011;9862;49.462;11.054;2023-08-06T00:45:18;3.92;;;3.38;;
19446;SDS011;9862;49.462;11.054;2023-08-06T00:47:45;4.38;;;3.30;;
19446;SDS011;9862;49.462;11.054;2023-08-06T00:50:14;4.35;;;3.42;;
19446;SDS011;9862;49.462;11.054;2023-08-06T00:52:41;3.97;;;3.35;;
19446;SDS011;9862;49.462;11.054;2023-08-06T00:55:08;5.55;;;3.90;;
19446;SDS011;9862;49.462;11.054;2023-08-06T00:57:36;3.83;;;3.30;;
19446;SDS011;9862;49.462;11.054;2023-08-06T01:00:07;2.90;;;2.63;;
19446;SDS011;9862;49.462;11.054;2023-08-06T01:02:34;4.38;;;3.53;;
19446;SDS011;9862;49.462;11.054;2023-08-06T01:05:01;5.53;;;3.25;;
19446;SDS011;9862;49.462;11.054;2023-08-06T01:07:32;5.05;;;3.20;;
19446;SDS011;9862;49.462;11.054;2023-08-06T01:10:14;3.60;;;3.22;;
19446;SDS011;9862;49.462;11.054;2023-08-06T01:12:54;5.40;;;3.30;;
19446;SDS011;9862;49.462;11.054;2023-08-06T01:15:31;4.03;;;3.63;;
19446;SDS011;9862;49.462;11.054;2023-08-06T01:18:01;5.18;;;3.08;;
19446;SDS011;9862;49.462;11.054;2023-08-06T01:20:29;4.28;;;3.40;;
19446;SDS011;9862;49.462;11.054;2023-08-06T01:22:56;4.63;;;3.30;;
19446;SDS011;9862;49.462;11.054;2023-08-06T01:25:25;4.90;;;3.30;;
19446;SDS011;9862;49.462;11.054;2023-08-06T01:27:56;4.25;;;3.17;;
19446;SDS011;9862;49.462;11.054;2023-08-06T01:30:30;5.55;;;2.75;;
19446;SDS011;9862;49.462;11.054;2023-08-06T01:33:03;4.15;;;2.70;;
19446;SDS011;9862;49.462;11.054;2023-08-06T01:35:32;5.22;;;2.70;;
19446;SDS011;9862;49.462;11.054;2023-08-06T01:38:01;3.55;;;2.67;;
19446;SDS011;9862;49.462;11.054;2023-08-06T01:40:30;2.97;;;2.38;;
19446;SDS011;9862;49.462;11.054;2023-08-06T01:42:58;2.72;;;2.13;;
19446;SDS011;9862;49.462;11.054;2023-08-06T01:45:25;4.35;;;2.22;;
19446;SDS011;9862;49.462;11.054;2023-08-06T01:47:52;2.47;;;2.20;;
19446;SDS011;9862;49.462;11.054;2023-08-06T01:50:19;3.03;;;2.28;;
19446;SDS011;9862;49.462;11.054;2023-08-06T01:52:47;3.03;;;2.22;;
19446;SDS011;9862;49.462;11.054;2023-08-06T01:55:13;3.03;;;2.53;;
19446;SDS011;9862;49.462;11.054;2023-08-06T01:57:40;3.08;;;2.17;;
19446;SDS011;9862;49.462;11.054;2023-08-06T02:00:07;3.40;;;2.10;;
19446;SDS011;9862;49.462;11.054;2023-08-06T02:02:35;3.70;;;2.45;;
19446;SDS011;9862;49.462;11.054;2023-08-06T02:05:01;4.43;;;2.22;;
19446;SDS011;9862;49.462;11.054;2023-08-06T02:07:29;4.38;;;2.63;;
19446;SDS011;9862;49.462;11.054;2023-08-06T02:09:57;3.22;;;2.15;;
19446;SDS011;9862;49.462;11.054;2023-08-06T02:12:24;2.50;;;2.30;;
19446;SDS011;9862;49.462;11.054;2023-08-06T02:14:52;2.58;;;2.13;;
19446;SDS011;9862;49.462;11.054;2023-08-06T02:17:19;3.00;;;2.45;;
19446;SDS011;9862;49.462;11.054;2023-08-06T02:19:46;4.25;;;2.25;;
19446;SDS011;9862;49.462;11.054;2023-08-06T02:22:13;3.03;;;1.92;;
19446;SDS011;9862;49.462;11.054;2023-08-06T02:24:41;2.88;;;2.10;;
19446;SDS011;9862;49.462;11.054;2023-08-06T02:27:11;2.10;;;1.90;;
19446;SDS011;9862;49.462;11.054;2023-08-06T02:29:40;3.47;;;2.15;;
19446;SDS011;9862;49.462;11.054;2023-08-06T02:32:09;3.42;;;2.28;;
19446;SDS011;9862;49.462;11.054;2023-08-06T02:34:37;2.35;;;1.95;;
19446;SDS011;9862;49.462;11.054;2023-08-06T02:37:05;2.55;;;2.03;;
19446;SDS011;9862;49.462;11.054;2023-08-06T02:39:32;2.78;;;2.03;;
19446;SDS011;9862;49.462;11.054;2023-08-06T02:41:59;2.67;;;1.70;;
19446;SDS011;9862;49.462;11.054;2023-08-06T02:44:28;3.45;;;2.25;;
19446;SDS011;9862;49.462;11.054;2023-08-06T02:46:55;3.63;;;2.17;;
19446;SDS011;9862;49.462;11.054;2023-08-06T02:49:21;3.38;;;2.13;;
19446;SDS011;9862;49.462;11.054;2023-08-06T02:51:49;2.20;;;2.00;;
19446;SDS011;9862;49.462;11.054;2023-08-06T02:54:16;2.00;;;1.80;;
19446;SDS011;9862;49.462;11.054;2023-08-06T02:56:44;5.65;;;2.15;;
19446;SDS011;9862;49.462;11.054;2023-08-06T02:59:11;2.35;;;2.05;;
19446;SDS011;9862;49.462;11.054;2023-08-06T03:01:39;3.00;;;2.15;;
19446;SDS011;9862;49.462;11.054;2023-08-06T03:04:06;2.15;;;1.92;;
19446;SDS011;9862;49.462;11.054;2023-08-06T03:06:33;2.25;;;2.05;;
19446;SDS011;9862;49.462;11.054;2023-08-06T03:08:58;2.17;;;1.92;;
19446;SDS011;9862;49.462;11.054;2023-08-06T03:11:25;2.10;;;1.90;;
19446;SDS011;9862;49.462;11.054;2023-08-06T03:13:52;3.10;;;1.92;;
19446;SDS011;9862;49.462;11.054;2023-08-06T03:16:19;2.72;;;2.35;;
19446;SDS011;9862;49.462;11.054;2023-08-06T03:18:48;4.00;;;2.17;;
19446;SDS011;9862;49.462;11.054;2023-08-06T03:21:15;2.55;;;2.22;;
19446;SDS011;9862;49.462;11.054;2023-08-06T03:23:41;2.47;;;1.95;;
19446;SDS011;9862;49.462;11.054;2023-08-06T03:26:09;3.53;;;2.10;;
19446;SDS011;9862;49.462;11.054;2023-08-06T03:28:36;5.20;;;2.55;;
19446;SDS011;9862;49.462;11.054;2023-08-06T03:31:03;2.45;;;2.05;;
19446;SDS011;9862;49.462;11.054;2023-08-06T03:33:31;3.95;;;2.58;;
19446;SDS011;9862;49.462;11.054;2023-08-06T03:36:01;2.50;;;2.30;;
19446;SDS011;9862;49.462;11.054;2023-08-06T03:38:28;2.65;;;2.20;;
19446;SDS011;9862;49.462;11.054;2023-08-06T03:40:55;4.38;;;2.47;;
19446;SDS011;9862;49.462;11.054;2023-08-06T03:43:22;3.63;;;2.47;;
19446;SDS011;9862;49.462;11.054;2023-08-06T03:45:49;2.63;;;2.38;;
19446;SDS011;9862;49.462;11.054;2023-08-06T03:48:16;3.15;;;2.10;;
19446;SDS011;9862;49.462;11.054;2023-08-06T03:50:43;3.25;;;2.38;;
19446;SDS011;9862;49.462;11.054;2023-08-06T03:53:12;2.88;;;1.90;;
19446;SDS011;9862;49.462;11.054;2023-08-06T03:55:41;2.70;;;2.50;;
19446;SDS011;9862;49.462;11.054;2023-08-06T03:58:09;3.30;;;2.17;;
19446;SDS011;9862;49.462;11.054;2023-08-06T04:00:36;3.78;;;2.53;;
19446;SDS011;9862;49.462;11.054;2023-08-06T04:03:05;2.72;;;2.28;;
19446;SDS011;9862;49.462;11.054;2023-08-06T04:05:32;5.80;;;2.33;;
19446;SDS011;9862;49.462;11.054;2023-08-06T04:07:59;6.57;;;2.50;;
19446;SDS011;9862;49.462;11.054;2023-08-06T04:10:28;3.55;;;2.10;;
19446;SDS011;9862;49.462;11.054;2023-08-06T04:12:54;3.90;;;2.20;;
19446;SDS011;9862;49.462;11.054;2023-08-06T04:15:21;14.90;;;9.77;;
19446;SDS011;9862;49.462;11.054;2023-08-06T04:17:48;17.05;;;10.45;;
19446;SDS011;9862;49.462;11.054;2023-08-06T04:20:15;13.20;;;6.47;;
19446;SDS011;9862;49.462;11.054;2023-08-06T04:22:41;8.63;;;5.60;;
19446;SDS011;9862;49.462;11.054;2023-08-06T04:25:08;28.80;;;17.83;;
19446;SDS011;9862;49.462;11.054;2023-08-06T04:27:37;14.32;;;9.70;;
19446;SDS011;9862;49.462;11.054;2023-08-06T04:30:07;8.25;;;4.75;;
19446;SDS011;9862;49.462;11.054;2023-08-06T04:32:35;5.20;;;3.75;;
19446;SDS011;9862;49.462;11.054;2023-08-06T04:35:02;5.22;;;3.38;;
19446;SDS011;9862;49.462;11.054;2023-08-06T04:37:29;13.25;;;9.10;;
19446;SDS011;9862;49.462;11.054;2023-08-06T04:39:57;11.23;;;8.68;;
19446;SDS011;9862;49.462;11.054;2023-08-06T04:42:23;10.30;;;7.53;;
19446;SDS011;9862;49.462;11.054;2023-08-06T04:44:51;7.63;;;5.47;;
19446;SDS011;9862;49.462;11.054;2023-08-06T04:47:18;7.65;;;4.50;;
19446;SDS011;9862;49.462;11.054;2023-08-06T04:49:45;4.35;;;3.67;;
19446;SDS011;9862;49.462;11.054;2023-08-06T04:52:11;4.72;;;3.88;;
19446;SDS011;9862;49.462;11.054;2023-08-06T04:54:38;3.55;;;2.60;;
19446;SDS011;9862;49.462;11.054;2023-08-06T04:57:05;3.88;;;2.60;;
19446;SDS011;9862;49.462;11.054;2023-08-06T04:59:32;5.53;;;4.40;;
19446;SDS011;9862;49.462;11.054;2023-08-06T05:02:00;7.70;;;5.32;;
19446;SDS011;9862;49.462;11.054;2023-08-06T05:04:28;9.27;;;7.30;;
19446;SDS011;9862;49.462;11.054;2023-08-06T05:06:55;14.20;;;7.82;;
19446;SDS011;9862;49.462;11.054;2023-08-06T05:09:22;18.65;;;11.82;;
19446;SDS011;9862;49.462;11.054;2023-08-06T05:11:49;10.52;;;7.15;;
19446;SDS011;9862;49.462;11.054;2023-08-06T05:14:18;5.75;;;4.55;;
19446;SDS011;9862;49.462;11.054;2023-08-06T05:16:44;3.97;;;2.97;;
19446;SDS011;9862;49.462;11.054;2023-08-06T05:19:12;3.60;;;2.67;;
19446;SDS011;9862;49.462;11.054;2023-08-06T05:21:41;3.67;;;2.55;;
19446;SDS011;9862;49.462;11.054;2023-08-06T05:24:08;3.55;;;2.72;;
19446;SDS011;9862;49.462;11.054;2023-08-06T05:26:35;9.73;;;6.47;;
19446;SDS011;9862;49.462;11.054;2023-08-06T05:29:02;11.15;;;8.75;;
19446;SDS011;9862;49.462;11.054;2023-08-06T05:31:29;12.20;;;9.02;;
19446;SDS011;9862;49.462;11.054;2023-08-06T05:33:56;8.85;;;6.60;;
19446;SDS011;9862;49.462;11.054;2023-08-06T05:36:24;5.85;;;3.97;;
19446;SDS011;9862;49.462;11.054;2023-08-06T05:38:51;5.15;;;3.38;;
19446;SDS011;9862;49.462;11.054;2023-08-06T05:41:18;15.25;;;10.77;;
19446;SDS011;9862;49.462;11.054;2023-08-06T05:43:45;19.58;;;14.07;;
19446;SDS011;9862;49.462;11.054;2023-08-06T05:46:12;11.35;;;7.55;;
19446;SDS011;9862;49.462;11.054;2023-08-06T05:48:39;5.85;;;3.10;;
19446;SDS011;9862;49.462;11.054;2023-08-06T05:51:06;3.60;;;2.85;;
19446;SDS011;9862;49.462;11.054;2023-08-06T05:53:34;5.88;;;2.72;;
19446;SDS011;9862;49.462;11.054;2023-08-06T05:56:01;2.83;;;2.30;;
19446;SDS011;9862;49.462;11.054;2023-08-06T05:58:28;4.53;;;3.13;;
19446;SDS011;9862;49.462;11.054;2023-08-06T06:00:55;2.95;;;2.65;;
19446;SDS011;9862;49.462;11.054;2023-08-06T06:03:22;5.57;;;3.50;;
19446;SDS011;9862;49.462;11.054;2023-08-06T06:05:49;6.45;;;3.10;;
19446;SDS011;9862;49.462;11.054;2023-08-06T06:08:15;4.22;;;3.00;;
19446;SDS011;9862;49.462;11.054;2023-08-06T06:10:44;3.92;;;3.08;;
19446;SDS011;9862;49.462;11.054;2023-08-06T06:13:11;5.22;;;3.42;;
19446;SDS011;9862;49.462;11.054;2023-08-06T06:15:39;4.57;;;3.10;;
19446;SDS011;9862;49.462;11.054;2023-08-06T06:18:06;4.93;;;3.50;;
19446;SDS011;9862;49.462;11.054;2023-08-06T06:20:32;5.60;;;3.35;;
19446;SDS011;9862;49.462;11.054;2023-08-06T06:23:01;5.18;;;3.08;;
19446;SDS011;9862;49.462;11.054;2023-08-06T06:25:28;4.15;;;2.90;;
19446;SDS011;9862;49.462;11.054;2023-08-06T06:27:56;4.70;;;2.95;;
19446;SDS011;9862;49.462;11.054;2023-08-06T06:30:24;4.93;;;2.92;;
19446;SDS011;9862;49.462;11.054;2023-08-06T06:32:50;3.88;;;2.65;;
19446;SDS011;9862;49.462;11.054;2023-08-06T06:35:17;4.88;;;2.95;;
19446;SDS011;9862;49.462;11.054;2023-08-06T06:37:44;3.90;;;2.53;;
19446;SDS011;9862;49.462;11.054;2023-08-06T06:40:10;5.28;;;2.95;;
19446;SDS011;9862;49.462;11.054;2023-08-06T06:42:37;4.65;;;2.95;;
19446;SDS011;9862;49.462;11.054;2023-08-06T06:45:07;4.05;;;2.88;;
19446;SDS011;9862;49.462;11.054;2023-08-06T06:47:34;4.78;;;2.80;;
19446;SDS011;9862;49.462;11.054;2023-08-06T06:50:01;4.90;;;3.33;;
19446;SDS011;9862;49.462;11.054;2023-08-06T06:52:28;5.82;;;3.40;;
19446;SDS011;9862;49.462;11.054;2023-08-06T06:54:55;4.50;;;3.25;;
19446;SDS011;9862;49.462;11.054;2023-08-06T06:57:23;3.55;;;2.83;;
19446;SDS011;9862;49.462;11.054;2023-08-06T06:59:49;5.15;;;3.10;;
19446;SDS011;9862;49.462;11.054;2023-08-06T07:02:18;4.35;;;2.80;;
19446;SDS011;9862;49.462;11.054;2023-08-06T07:04:44;6.47;;;2.75;;
19446;SDS011;9862;49.462;11.054;2023-08-06T07:07:11;4.97;;;3.17;;
19446;SDS011;9862;49.462;11.054;2023-08-06T07:09:38;3.08;;;2.72;;
19446;SDS011;9862;49.462;11.054;2023-08-06T07:12:05;5.07;;;2.90;;
19446;SDS011;9862;49.462;11.054;2023-08-06T07:14:33;3.78;;;3.10;;
19446;SDS011;9862;49.462;11.054;2023-08-06T07:17:01;5.57;;;2.63;;
19446;SDS011;9862;49.462;11.054;2023-08-06T07:19:29;4.82;;;2.85;;
19446;SDS011;9862;49.462;11.054;2023-08-06T07:21:56;3.97;;;3.05;;
19446;SDS011;9862;49.462;11.054;2023-08-06T07:24:22;6.63;;;3.20;;
19446;SDS011;9862;49.462;11.054;2023-08-06T07:26:49;6.22;;;3.10;;
19446;SDS011;9862;49.462;11.054;2023-08-06T07:29:18;3.70;;;2.65;;
19446;SDS011;9862;49.462;11.054;2023-08-06T07:31:47;5.55;;;3.00;;
19446;SDS011;9862;49.462;11.054;2023-08-06T07:34:14;4.25;;;3.05;;
19446;SDS011;9862;49.462;11.054;2023-08-06T07:36:44;3.58;;;2.90;;
19446;SDS011;9862;49.462;11.054;2023-08-06T07:39:13;3.10;;;2.80;;
19446;SDS011;9862;49.462;11.054;2023-08-06T07:41:41;4.72;;;3.40;;
19446;SDS011;9862;49.462;11.054;2023-08-06T07:44:08;4.45;;;3.00;;
19446;SDS011;9862;49.462;11.054;2023-08-06T07:46:35;3.15;;;2.55;;
19446;SDS011;9862;49.462;11.054;2023-08-06T07:49:01;4.45;;;3.35;;
19446;SDS011;9862;49.462;11.054;2023-08-06T07:51:28;5.50;;;2.70;;
19446;SDS011;9862;49.462;11.054;2023-08-06T07:53:56;3.80;;;2.47;;
19446;SDS011;9862;49.462;11.054;2023-08-06T07:56:23;3.22;;;2.20;;
19446;SDS011;9862;49.462;11.054;2023-08-06T07:58:50;4.43;;;2.38;;
19446;SDS011;9862;49.462;11.054;2023-08-06T08:01:18;5.57;;;2.60;;
19446;SDS011;9862;49.462;11.054;2023-08-06T08:03:45;2.50;;;1.80;;
19446;SDS011;9862;49.462;11.054;2023-08-06T08:06:12;3.05;;;2.22;;
19446;SDS011;9862;49.462;11.054;2023-08-06T08:08:39;2.97;;;1.92;;
19446;SDS011;9862;49.462;11.054;2023-08-06T08:11:08;2.83;;;2.08;;
19446;SDS011;9862;49.462;11.054;2023-08-06T08:13:35;5.10;;;1.80;;
19446;SDS011;9862;49.462;11.054;2023-08-06T08:16:02;4.22;;;1.88;;
19446;SDS011;9862;49.462;11.054;2023-08-06T08:18:28;3.95;;;2.28;;
19446;SDS011;9862;49.462;11.054;2023-08-06T08:20:57;3.38;;;1.60;;
19446;SDS011;9862;49.462;11.054;2023-08-06T08:23:23;1.15;;;1.00;;
19446;SDS011;9862;49.462;11.054;2023-08-06T08:25:50;2.83;;;0.80;;
19446;SDS011;9862;49.462;11.054;2023-08-06T08:28:18;1.48;;;0.98;;
19446;SDS011;9862;49.462;11.054;2023-08-06T08:30:45;0.80;;;0.70;;
19446;SDS011;9862;49.462;11.054;2023-08-06T08:33:12;2.75;;;0.90;;
19446;SDS011;9862;49.462;11.054;2023-08-06T08:35:39;1.73;;;0.88;;
19446;SDS011;9862;49.462;11.054;2023-08-06T08:38:06;2.25;;;0.60;;
19446;SDS011;9862;49.462;11.054;2023-08-06T08:40:33;4.72;;;2.25;;
19446;SDS011;9862;49.462;11.054;2023-08-06T08:43:08;1.75;;;0.70;;
19446;SDS011;9862;49.462;11.054;2023-08-06T08:45:39;1.85;;;0.73;;
19446;SDS011;9862;49.462;11.054;2023-08-06T08:48:06;0.70;;;0.40;;
19446;SDS011;9862;49.462;11.054;2023-08-06T08:50:34;0.60;;;0.40;;
19446;SDS011;9862;49.462;11.054;2023-08-06T08:53:01;0.40;;;0.40;;
19446;SDS011;9862;49.462;11.054;2023-08-06T08:55:29;0.70;;;0.40;;
19446;SDS011;9862;49.462;11.054;2023-08-06T08:57:56;1.00;;;0.40;;
19446;SDS011;9862;49.462;11.054;2023-08-06T09:00:23;0.93;;;0.50;;
19446;SDS011;9862;49.462;11.054;2023-08-06T09:02:52;0.38;;;0.30;;
19446;SDS011;9862;49.462;11.054;2023-08-06T09:05:21;0.50;;;0.50;;
19446;SDS011;9862;49.462;11.054;2023-08-06T09:07:49;0.63;;;0.57;;
19446;SDS011;9862;49.462;11.054;2023-08-06T09:10:19;1.33;;;0.75;;
19446;SDS011;9862;49.462;11.054;2023-08-06T09:12:50;2.38;;;0.47;;
19446;SDS011;9862;49.462;11.054;2023-08-06T09:15:18;1.20;;;0.50;;
19446;SDS011;9862;49.462;11.054;2023-08-06T09:17:45;0.85;;;0.50;;
19446;SDS011;9862;49.462;11.054;2023-08-06T09:20:13;0.77;;;0.30;;
19446;SDS011;9862;49.462;11.054;2023-08-06T09:22:41;0.70;;;0.43;;
19446;SDS011;9862;49.462;11.054;2023-08-06T09:25:09;1.85;;;0.30;;
19446;SDS011;9862;49.462;11.054;2023-08-06T09:27:40;1.08;;;0.40;;
19446;SDS011;9862;49.462;11.054;2023-08-06T09:30:07;0.45;;;0.43;;
19446;SDS011;9862;49.462;11.054;2023-08-06T09:32:46;2.00;;;0.43;;
19446;SDS011;9862;49.462;11.054;2023-08-06T09:35:17;0.30;;;0.30;;
19446;SDS011;9862;49.462;11.054;2023-08-06T09:37:44;0.40;;;0.40;;
19446;SDS011;9862;49.462;11.054;2023-08-06T09:40:23;0.32;;;0.30;;
19446;SDS011;9862;49.462;11.054;2023-08-06T09:42:52;1.00;;;0.50;;
19446;SDS011;9862;49.462;11.054;2023-08-06T09:45:19;0.30;;;0.30;;
19446;SDS011;9862;49.462;11.054;2023-08-06T09:47:47;0.73;;;0.57;;
19446;SDS011;9862;49.462;11.054;2023-08-06T09:50:14;1.67;;;0.75;;
19446;SDS011;9862;49.462;11.054;2023-08-06T09:52:44;0.50;;;0.50;;
19446;SDS011;9862;49.462;11.054;2023-08-06T09:55:11;1.30;;;0.60;;
19446;SDS011;9862;49.462;11.054;2023-08-06T09:57:38;0.50;;;0.30;;
19446;SDS011;9862;49.462;11.054;2023-08-06T10:00:07;0.88;;;0.70;;
19446;SDS011;9862;49.462;11.054;2023-08-06T10:02:35;0.32;;;0.32;;
19446;SDS011;9862;49.462;11.054;2023-08-06T10:05:04;0.50;;;0.50;;
19446;SDS011;9862;49.462;11.054;2023-08-06T10:07:31;1.00;;;0.70;;
19446;SDS011;9862;49.462;11.054;2023-08-06T10:10:00;0.45;;;0.43;;
19446;SDS011;9862;49.462;11.054;2023-08-06T10:12:28;1.33;;;0.90;;
19446;SDS011;9862;49.462;11.054;2023-08-06T10:14:59;0.60;;;0.60;;
19446;SDS011;9862;49.462;11.054;2023-08-06T10:17:30;0.80;;;0.30;;
19446;SDS011;9862;49.462;11.054;2023-08-06T10:19:58;0.40;;;0.40;;
19446;SDS011;9862;49.462;11.054;2023-08-06T10:22:25;0.50;;;0.50;;
19446;SDS011;9862;49.462;11.054;2023-08-06T10:24:53;0.45;;;0.45;;
19446;SDS011;9862;49.462;11.054;2023-08-06T10:27:27;1.20;;;0.73;;
19446;SDS011;9862;49.462;11.054;2023-08-06T10:32:53;0.32;;;0.32;;
19446;SDS011;9862;49.462;11.054;2023-08-06T10:35:29;0.80;;;0.38;;
19446;SDS011;9862;49.462;11.054;2023-08-06T10:37:59;0.40;;;0.40;;
19446;SDS011;9862;49.462;11.054;2023-08-06T10:40:29;0.63;;;0.40;;
19446;SDS011;9862;49.462;11.054;2023-08-06T10:42:59;0.70;;;0.30;;
19446;SDS011;9862;49.462;11.054;2023-08-06T10:45:28;0.30;;;0.30;;
19446;SDS011;9862;49.462;11.054;2023-08-06T10:47:56;0.30;;;0.30;;
19446;SDS011;9862;49.462;11.054;2023-08-06T10:50:24;0.43;;;0.30;;
19446;SDS011;9862;49.462;11.054;2023-08-06T10:52:52;0.38;;;0.38;;
19446;SDS011;9862;49.462;11.054;2023-08-06T10:55:23;1.10;;;0.40;;
19446;SDS011;9862;49.462;11.054;2023-08-06T10:57:52;0.50;;;0.50;;
19446;SDS011;9862;49.462;11.054;2023-08-06T11:00:22;0.43;;;0.40;;
19446;SDS011;9862;49.462;11.054;2023-08-06T11:02:52;1.00;;;0.40;;
19446;SDS011;9862;49.462;11.054;2023-08-06T11:05:20;0.20;;;0.20;;
19446;SDS011;9862;49.462;11.054;2023-08-06T11:07:47;0.43;;;0.38;;
19446;SDS011;9862;49.462;11.054;2023-08-06T11:10:16;0.35;;;0.30;;
19446;SDS011;9862;49.462;11.054;2023-08-06T11:12:43;0.30;;;0.30;;
19446;SDS011;9862;49.462;11.054;2023-08-06T11:15:10;0.85;;;0.40;;
19446;SDS011;9862;49.462;11.054;2023-08-06T11:17:41;0.60;;;0.50;;
19446;SDS011;9862;49.462;11.054;2023-08-06T11:20:08;0.30;;;0.30;;
19446;SDS011;9862;49.462;11.054;2023-08-06T11:22:37;0.40;;;0.40;;
19446;SDS011;9862;49.462;11.054;2023-08-06T11:25:05;1.10;;;0.30;;
19446;SDS011;9862;49.462;11.054;2023-08-06T11:27:33;0.52;;;0.30;;
19446;SDS011;9862;49.462;11.054;2023-08-06T11:30:00;0.30;;;0.30;;
19446;SDS011;9862;49.462;11.054;2023-08-06T11:32:29;0.30;;;0.30;;
19446;SDS011;9862;49.462;11.054;2023-08-06T11:34:58;0.47;;;0.40;;
19446;SDS011;9862;49.462;11.054;2023-08-06T11:37:24;3.00;;;0.60;;
19446;SDS011;9862;49.462;11.054;2023-08-06T11:39:52;0.50;;;0.40;;
19446;SDS011;9862;49.462;11.054;2023-08-06T11:42:19;0.35;;;0.35;;
19446;SDS011;9862;49.462;11.054;2023-08-06T11:44:46;0.40;;;0.40;;
19446;SDS011;9862;49.462;11.054;2023-08-06T11:47:13;1.70;;;0.85;;
19446;SDS011;9862;49.462;11.054;2023-08-06T11:49:42;0.40;;;0.40;;
19446;SDS011;9862;49.462;11.054;2023-08-06T11:52:16;1.20;;;0.50;;
19446;SDS011;9862;49.462;11.054;2023-08-06T11:54:45;1.05;;;0.40;;
19446;SDS011;9862;49.462;11.054;2023-08-06T11:57:15;0.40;;;0.40;;
19446;SDS011;9862;49.462;11.054;2023-08-06T11:59:43;0.63;;;0.40;;
19446;SDS011;9862;49.462;11.054;2023-08-06T12:02:11;0.50;;;0.43;;
19446;SDS011;9862;49.462;11.054;2023-08-06T12:04:58;0.38;;;0.30;;
19446;SDS011;9862;49.462;11.054;2023-08-06T12:07:28;0.32;;;0.32;;
19446;SDS011;9862;49.462;11.054;2023-08-06T12:09:56;0.73;;;0.47;;
19446;SDS011;9862;49.462;11.054;2023-08-06T12:12:23;1.77;;;0.50;;
19446;SDS011;9862;49.462;11.054;2023-08-06T12:14:51;0.30;;;0.30;;
19446;SDS011;9862;49.462;11.054;2023-08-06T12:17:18;4.10;;;2.00;;
19446;SDS011;9862;49.462;11.054;2023-08-06T12:19:46;0.40;;;0.40;;
19446;SDS011;9862;49.462;11.054;2023-08-06T12:22:14;2.00;;;0.40;;
19446;SDS011;9862;49.462;11.054;2023-08-06T12:24:43;1.38;;;0.50;;
19446;SDS011;9862;49.462;11.054;2023-08-06T12:27:11;0.80;;;0.30;;
19446;SDS011;9862;49.462;11.054;2023-08-06T12:29:40;0.77;;;0.57;;
19446;SDS011;9862;49.462;11.054;2023-08-06T12:32:07;0.73;;;0.50;;
19446;SDS011;9862;49.462;11.054;2023-08-06T12:34:34;0.60;;;0.60;;
19446;SDS011;9862;49.462;11.054;2023-08-06T12:37:01;1.08;;;0.50;;
19446;SDS011;9862;49.462;11.054;2023-08-06T12:39:28;3.92;;;0.65;;
19446;SDS011;9862;49.462;11.054;2023-08-06T12:41:57;0.43;;;0.40;;
19446;SDS011;9862;49.462;11.054;2023-08-06T12:44:26;1.90;;;0.77;;
19446;SDS011;9862;49.462;11.054;2023-08-06T12:46:53;0.40;;;0.40;;
19446;SDS011;9862;49.462;11.054;2023-08-06T12:49:20;0.40;;;0.40;;
19446;SDS011;9862;49.462;11.054;2023-08-06T12:51:48;0.40;;;0.40;;
19446;SDS011;9862;49.462;11.054;2023-08-06T12:54:16;0.40;;;0.40;;
19446;SDS011;9862;49.462;11.054;2023-08-06T12:56:43;0.93;;;0.40;;
19446;SDS011;9862;49.462;11.054;2023-08-06T12:59:11;0.20;;;0.20;;
19446;SDS011;9862;49.462;11.054;2023-08-06T13:01:38;1.33;;;0.40;;
19446;SDS011;9862;49.462;11.054;2023-08-06T13:04:05;0.30;;;0.30;;
19446;SDS011;9862;49.462;11.054;2023-08-06T13:06:31;0.30;;;0.30;;
19446;SDS011;9862;49.462;11.054;2023-08-06T13:09:02;0.45;;;0.35;;
19446;SDS011;9862;49.462;11.054;2023-08-06T13:11:29;0.30;;;0.30;;
19446;SDS011;9862;49.462;11.054;2023-08-06T13:14:03;0.55;;;0.30;;
19446;SDS011;9862;49.462;11.054;2023-08-06T13:16:32;0.40;;;0.40;;
19446;SDS011;9862;49.462;11.054;2023-08-06T13:18:59;1.02;;;0.30;;
19446;SDS011;9862;49.462;11.054;2023-08-06T13:21:30;0.40;;;0.40;;
19446;SDS011;9862;49.462;11.054;2023-08-06T13:23:58;0.40;;;0.40;;
19446;SDS011;9862;49.462;11.054;2023-08-06T13:26:26;0.40;;;0.40;;
19446;SDS011;9862;49.462;11.054;2023-08-06T13:28:53;0.30;;;0.30;;
19446;SDS011;9862;49.462;11.054;2023-08-06T13:31:20;0.20;;;0.20;;
19446;SDS011;9862;49.462;11.054;2023-08-06T13:33:48;7.90;;;0.65;;
19446;SDS011;9862;49.462;11.054;2023-08-06T13:36:15;1.17;;;0.20;;
19446;SDS011;9862;49.462;11.054;2023-08-06T13:38:42;0.20;;;0.20;;
19446;SDS011;9862;49.462;11.054;2023-08-06T13:41:09;0.77;;;0.45;;
19446;SDS011;9862;49.462;11.054;2023-08-06T13:43:35;0.25;;;0.25;;
19446;SDS011;9862;49.462;11.054;2023-08-06T13:46:02;1.98;;;0.20;;
19446;SDS011;9862;49.462;11.054;2023-08-06T13:48:29;0.30;;;0.30;;
19446;SDS011;9862;49.462;11.054;2023-08-06T13:50:57;0.28;;;0.28;;
19446;SDS011;9862;49.462;11.054;2023-08-06T13:53:23;0.43;;;0.40;;
19446;SDS011;9862;49.462;11.054;2023-08-06T13:55:52;1.58;;;0.30;;
19446;SDS011;9862;49.462;11.054;2023-08-06T13:58:19;0.25;;;0.25;;
19446;SDS011;9862;49.462;11.054;2023-08-06T14:00:47;0.35;;;0.35;;
19446;SDS011;9862;49.462;11.054;2023-08-06T14:03:13;0.20;;;0.20;;
19446;SDS011;9862;49.462;11.054;2023-08-06T14:05:41;0.65;;;0.30;;
19446;SDS011;9862;49.462;11.054;2023-08-06T14:08:09;1.45;;;0.30;;
19446;SDS011;9862;49.462;11.054;2023-08-06T14:10:35;0.20;;;0.20;;
19446;SDS011;9862;49.462;11.054;2023-08-06T14:13:02;0.28;;;0.28;;
19446;SDS011;9862;49.462;11.054;2023-08-06T14:15:28;0.40;;;0.30;;
19446;SDS011;9862;49.462;11.054;2023-08-06T14:17:55;0.50;;;0.40;;
19446;SDS011;9862;49.462;11.054;2023-08-06T14:20:22;0.20;;;0.20;;
19446;SDS011;9862;49.462;11.054;2023-08-06T14:22:49;0.38;;;0.30;;
19446;SDS011;9862;49.462;11.054;2023-08-06T14:25:17;0.35;;;0.30;;
19446;SDS011;9862;49.462;11.054;2023-08-06T14:27:46;0.45;;;0.25;;
19446;SDS011;9862;49.462;11.054;2023-08-06T14:30:12;0.55;;;0.40;;
19446;SDS011;9862;49.462;11.054;2023-08-06T14:32:40;0.40;;;0.40;;
19446;SDS011;9862;49.462;11.054;2023-08-06T14:35:07;0.45;;;0.32;;
19446;SDS011;9862;49.462;11.054;2023-08-06T14:37:34;2.08;;;0.40;;
19446;SDS011;9862;49.462;11.054;2023-08-06T14:40:01;0.50;;;0.30;;
19446;SDS011;9862;49.462;11.054;2023-08-06T14:42:30;1.35;;;0.47;;
19446;SDS011;9862;49.462;11.054;2023-08-06T14:44:57;0.57;;;0.30;;
19446;SDS011;9862;49.462;11.054;2023-08-06T14:47:24;1.55;;;0.32;;
19446;SDS011;9862;49.462;11.054;2023-08-06T14:49:50;0.40;;;0.30;;
19446;SDS011;9862;49.462;11.054;2023-08-06T14:52:17;0.65;;;0.30;;
19446;SDS011;9862;49.462;11.054;2023-08-06T14:54:45;0.30;;;0.30;;